createdAt,value
2022-12-24T00:02:11.548Z,6.28
2022-12-24T00:07:14.372Z,4.30
2022-12-24T00:12:17.117Z,4.75
2022-12-24T00:17:19.829Z,5.70
2022-12-24T00:22:22.730Z,8.25
2022-12-24T00:27:25.453Z,5.97
2022-12-24T00:32:28.203Z,7.93
2022-12-24T00:37:30.847Z,6.23
2022-12-24T00:42:33.491Z,5.03
2022-12-24T00:47:36.355Z,5.93
2022-12-24T00:52:39.002Z,7.38
2022-12-24T00:57:41.639Z,5.60
2022-12-24T01:02:44.704Z,9.73
2022-12-24T01:07:49.114Z,3.83
2022-12-24T01:12:51.782Z,9.18
2022-12-24T01:17:54.488Z,8.35
2022-12-24T01:22:57.161Z,6.60
2022-12-24T01:27:59.809Z,11.40
2022-12-24T01:33:02.485Z,5.13
2022-12-24T01:38:05.144Z,12.33
2022-12-24T01:43:28.380Z,8.87
2022-12-24T01:48:58.840Z,4.43
2022-12-24T01:54:08.629Z,9.27
2022-12-24T01:59:13.564Z,9.20
2022-12-24T02:04:35.091Z,8.65
2022-12-24T02:09:37.916Z,6.60
2022-12-24T02:14:40.646Z,9.02
2022-12-24T02:19:58.151Z,9.27
2022-12-24T02:25:20.615Z,6.72
2022-12-24T02:30:41.861Z,11.25
2022-12-24T02:36:10.803Z,7.82
2022-12-24T02:41:55.151Z,5.20
2022-12-24T02:46:59.797Z,5.50
2022-12-24T02:52:02.527Z,4.85
2022-12-24T02:57:43.702Z,7.80
2022-12-24T03:03:36.817Z,1.20
2022-12-24T03:09:07.518Z,5.03
2022-12-24T03:14:10.327Z,4.70
2022-12-24T03:19:13.140Z,4.77
2022-12-24T03:24:16.207Z,4.28
2022-12-24T03:29:19.509Z,3.97
2022-12-24T03:34:22.169Z,3.45
2022-12-24T03:39:24.971Z,4.05
2022-12-24T03:44:27.660Z,4.77
2022-12-24T03:49:30.554Z,2.77
2022-12-24T03:54:33.543Z,4.07
2022-12-24T03:59:37.878Z,3.22
2022-12-24T04:04:40.573Z,2.90
2022-12-24T04:09:43.228Z,2.40
2022-12-24T04:14:45.914Z,3.55
2022-12-24T04:19:48.810Z,4.93
2022-12-24T04:24:51.574Z,5.37
2022-12-24T04:29:54.296Z,2.70
2022-12-24T04:34:57.007Z,4.28
2022-12-24T04:39:59.734Z,3.97
2022-12-24T04:45:02.504Z,1.98
2022-12-24T04:50:06.558Z,3.67
2022-12-24T04:55:09.846Z,3.72
2022-12-24T05:00:13.056Z,4.65
2022-12-24T05:05:15.791Z,4.05
2022-12-24T05:10:37.278Z,3.67
2022-12-24T05:15:40.046Z,2.78
2022-12-24T05:20:42.716Z,2.75
2022-12-24T05:26:03.859Z,1.75
2022-12-24T05:31:06.502Z,3.50
2022-12-24T05:36:09.711Z,2.67
2022-12-24T05:41:12.421Z,2.63
2022-12-24T05:46:17.568Z,4.18
2022-12-24T05:51:22.583Z,4.20
2022-12-24T05:56:25.668Z,4.60
2022-12-24T06:01:28.745Z,3.13
2022-12-24T06:06:31.665Z,4.77
2022-12-24T06:11:34.671Z,4.33
2022-12-24T06:16:37.729Z,2.58
2022-12-24T06:21:40.491Z,3.70
2022-12-24T06:26:43.130Z,2.97
2022-12-24T06:31:45.819Z,3.08
2022-12-24T06:36:48.693Z,2.72
2022-12-24T06:41:51.471Z,3.65
2022-12-24T06:46:54.142Z,4.75
2022-12-24T06:51:56.815Z,3.25
2022-12-24T06:56:59.573Z,2.70
2022-12-24T07:02:02.556Z,3.13
2022-12-24T07:07:05.365Z,3.15
2022-12-24T07:12:08.278Z,2.85
2022-12-24T07:17:11.112Z,3.33
2022-12-24T07:22:15.885Z,2.97
2022-12-24T07:27:18.788Z,3.67
2022-12-24T07:32:21.875Z,3.58
2022-12-24T07:37:25.308Z,3.17
2022-12-24T07:42:28.172Z,2.35
2022-12-24T07:47:30.917Z,2.33
2022-12-24T07:52:33.681Z,3.33
2022-12-24T07:57:36.346Z,1.23
2022-12-24T08:02:39.193Z,2.45
2022-12-24T08:07:42.149Z,4.03
2022-12-24T08:12:45.995Z,1.75
2022-12-24T08:17:48.665Z,3.28
2022-12-24T08:22:51.449Z,2.15
2022-12-24T08:27:54.091Z,2.58
2022-12-24T08:32:57.151Z,2.80
2022-12-24T08:37:59.929Z,2.95
2022-12-24T08:43:03.283Z,3.67
2022-12-24T08:48:06.780Z,2.83
2022-12-24T08:53:10.712Z,2.60
2022-12-24T08:58:13.398Z,3.03
2022-12-24T09:03:20.654Z,3.38
2022-12-24T09:08:28.208Z,2.85
2022-12-24T09:13:30.886Z,3.83
2022-12-24T09:18:33.794Z,3.13
2022-12-24T09:23:40.017Z,3.88
2022-12-24T09:28:43.081Z,3.40
2022-12-24T09:33:47.310Z,3.20
2022-12-24T09:38:50.097Z,2.08
2022-12-24T09:43:57.577Z,2.17
2022-12-24T09:49:11.239Z,3.17
2022-12-24T09:54:20.364Z,3.40
2022-12-24T09:59:39.190Z,3.78
2022-12-24T10:04:42.701Z,2.38
2022-12-24T10:10:15.412Z,2.03
2022-12-24T10:15:24.204Z,3.67
2022-12-24T10:20:50.137Z,2.50
2022-12-24T10:26:15.742Z,3.45
2022-12-24T10:31:21.576Z,3.92
2022-12-24T10:36:28.986Z,4.03
2022-12-24T10:41:32.853Z,2.90
2022-12-24T10:46:40.049Z,3.63
2022-12-24T10:51:47.369Z,7.00
2022-12-24T10:56:52.912Z,4.72
2022-12-24T11:01:59.595Z,4.45
2022-12-24T11:07:05.139Z,5.93
2022-12-24T11:12:17.832Z,5.25
2022-12-24T11:17:23.914Z,2.95
2022-12-24T11:22:31.735Z,3.80
2022-12-24T11:27:47.648Z,4.95
2022-12-24T11:33:18.706Z,4.57
2022-12-24T11:38:23.853Z,4.65
2022-12-24T11:43:44.745Z,3.08
2022-12-24T11:48:48.196Z,3.03
2022-12-24T11:54:20.684Z,5.32
2022-12-24T11:59:33.617Z,3.15
2022-12-24T12:04:37.552Z,4.47
2022-12-24T12:09:51.428Z,3.13
2022-12-24T12:15:26.144Z,5.10
2022-12-24T12:20:41.893Z,5.45
2022-12-24T12:26:00.726Z,4.20
2022-12-24T12:31:15.807Z,4.95
2022-12-24T12:36:26.158Z,5.10
2022-12-24T12:41:34.894Z,5.43
2022-12-24T12:46:58.640Z,5.03
2022-12-24T12:57:11.968Z,8.05
2022-12-24T13:02:33.095Z,6.03
2022-12-24T13:07:48.901Z,5.65
2022-12-24T13:13:20.418Z,4.22
2022-12-24T13:18:46.968Z,3.63
2022-12-24T13:23:50.357Z,4.40
2022-12-24T13:28:53.026Z,3.50
2022-12-24T13:34:00.430Z,4.72
2022-12-24T13:39:03.118Z,3.83
2022-12-24T13:44:13.829Z,5.38
2022-12-24T13:49:38.455Z,5.00
2022-12-24T13:54:43.976Z,4.10
2022-12-24T13:59:47.327Z,4.88
2022-12-24T14:04:50.982Z,5.47
2022-12-24T14:09:53.785Z,4.93
2022-12-24T14:14:56.522Z,3.70
2022-12-24T14:20:01.815Z,3.67
2022-12-24T14:25:19.587Z,4.47
2022-12-24T14:30:24.546Z,4.15
2022-12-24T14:35:38.964Z,5.50
2022-12-24T14:40:53.805Z,3.75
2022-12-24T14:46:23.123Z,3.53
2022-12-24T14:51:43.995Z,2.83
2022-12-24T14:56:46.777Z,5.13
2022-12-24T15:01:49.644Z,5.78
2022-12-24T15:06:57.952Z,4.97
2022-12-24T15:12:03.752Z,5.78
2022-12-24T15:17:08.049Z,3.97
2022-12-24T15:22:24.881Z,4.60
2022-12-24T15:27:32.897Z,5.28
2022-12-24T15:32:35.604Z,4.65
2022-12-24T15:37:38.549Z,4.85
2022-12-24T15:42:44.742Z,4.75
2022-12-24T15:48:01.392Z,5.03
2022-12-24T15:53:22.101Z,7.05
2022-12-24T15:58:28.347Z,4.40
2022-12-24T16:03:31.156Z,5.53
2022-12-24T16:08:35.806Z,4.20
2022-12-24T16:13:44.344Z,6.25
2022-12-24T16:18:53.566Z,3.95
2022-12-24T16:23:58.959Z,5.20
2022-12-24T16:29:02.109Z,4.95
2022-12-24T16:34:05.392Z,4.53
2022-12-24T16:39:23.511Z,6.93
2022-12-24T16:44:26.347Z,4.30
2022-12-24T16:49:29.422Z,5.25
2022-12-24T16:54:32.133Z,5.13
2022-12-24T16:59:34.857Z,5.72
2022-12-24T17:04:37.495Z,5.03
2022-12-24T17:09:40.222Z,6.10
2022-12-24T17:14:43.197Z,4.47
2022-12-24T17:19:45.860Z,4.82
2022-12-24T17:24:48.856Z,6.00
2022-12-24T17:29:51.651Z,5.38
2022-12-24T17:34:54.487Z,4.47
2022-12-24T17:39:57.451Z,6.30
2022-12-24T17:45:00.131Z,5.10
2022-12-24T17:50:02.819Z,4.40
2022-12-24T17:55:06.765Z,6.10
2022-12-24T18:00:10.181Z,5.87
2022-12-24T18:05:13.967Z,5.50
2022-12-24T18:10:16.923Z,4.82
2022-12-24T18:15:20.621Z,5.30
2022-12-24T18:20:23.701Z,3.67
2022-12-24T18:25:26.481Z,6.57
2022-12-24T18:30:29.298Z,5.93
2022-12-24T18:35:32.214Z,5.82
2022-12-24T18:40:37.453Z,6.35
2022-12-24T18:45:47.127Z,6.05
2022-12-24T18:50:58.004Z,5.47
2022-12-24T18:56:05.004Z,6.60
2022-12-24T19:01:28.684Z,6.95
2022-12-24T19:11:35.403Z,5.35
2022-12-24T19:16:39.228Z,5.88
2022-12-24T19:21:42.096Z,8.25
2022-12-24T19:26:45.002Z,5.72
2022-12-24T19:31:47.798Z,5.03
2022-12-24T19:36:50.846Z,5.30
2022-12-24T19:41:53.563Z,5.68
2022-12-24T19:46:56.265Z,6.55
2022-12-24T19:51:58.964Z,7.95
2022-12-24T19:57:01.757Z,7.47
2022-12-24T20:02:04.597Z,5.28
2022-12-24T20:07:07.608Z,7.95
2022-12-24T20:12:10.453Z,6.80
2022-12-24T20:17:14.455Z,7.18
2022-12-24T20:22:17.198Z,6.85
2022-12-24T20:27:20.098Z,5.68
2022-12-24T20:32:22.893Z,6.68
2022-12-24T20:37:25.596Z,5.45
2022-12-24T20:42:28.451Z,6.78
2022-12-24T20:47:31.414Z,5.93
2022-12-24T20:52:34.173Z,7.20
2022-12-24T20:57:36.965Z,6.47
2022-12-24T21:02:39.854Z,6.05
2022-12-24T21:07:43.933Z,5.97
2022-12-24T21:12:49.464Z,7.97
2022-12-24T21:17:52.790Z,6.15
2022-12-24T21:23:00.567Z,5.88
2022-12-24T21:28:03.895Z,5.53
2022-12-24T21:33:06.624Z,7.20
2022-12-24T21:38:09.366Z,6.97
2022-12-24T21:43:12.318Z,8.45
2022-12-24T21:48:33.583Z,7.20
2022-12-24T21:53:54.826Z,7.45
2022-12-24T21:58:57.498Z,6.93
2022-12-24T22:04:00.147Z,7.00
2022-12-24T22:09:22.493Z,8.20
2022-12-24T22:14:25.250Z,7.50
2022-12-24T22:19:28.574Z,6.10
2022-12-24T22:24:31.289Z,6.30
2022-12-24T22:29:34.987Z,8.00
2022-12-24T22:34:37.729Z,7.00
2022-12-24T22:39:40.725Z,8.95
2022-12-24T22:44:43.428Z,6.25
2022-12-24T22:49:48.422Z,5.97
2022-12-24T22:54:51.071Z,7.75
2022-12-24T22:59:53.883Z,8.27
2022-12-24T23:04:56.944Z,7.25
2022-12-24T23:10:00.157Z,9.02
2022-12-24T23:15:02.998Z,6.05
2022-12-24T23:20:07.657Z,7.10
2022-12-24T23:25:10.524Z,7.72
2022-12-24T23:30:13.403Z,9.10
2022-12-24T23:35:16.077Z,8.60
2022-12-24T23:40:18.907Z,8.10
2022-12-24T23:45:21.716Z,5.72
2022-12-24T23:50:24.350Z,7.18
2022-12-24T23:55:27.287Z,8.23
